• Join FlightAware (Why Join?)
  • Login
  • US Flag 
09:58AM EDT


 

Airport Tracker/Info


-or-


 

Live Flight TrackerFlight Track Log ✈ ASQ5827 ✈ 05-May-2013 ✈ KORD - KCAK

Flight Track Log - Related Links

Times and Time Zones

All times are in EDT time to prevent confusion due to time zone crossing. See the ASQ5827 flight status page for this flight to view local times or setup timezone preferences in your user account.

Time Position Orientation Groundspeed Altitude Reporting Facility
EDT Latitude Longitude Course Direction KTS MPH feet Rate Location/Type
08:50AM 41.9833 -87.8167 90° East 195 224 3,400  Level Chicago TRACON
08:51AM 41.9833 -87.7333 90° East 218 251 5,800 2,280 Climbing Chicago TRACON
08:52AM 41.9642 -87.5084 98° East  Level FlightAware Approximate
08:52AM 41.9833 -87.6333 90° East 251 289 8,200  Level Chicago TRACON
08:53AM 41.9512 -87.3790 98° East  Level FlightAware Approximate
08:54AM 41.9417 -87.2490 95° East  Level FlightAware Approximate
08:54AM 41.9647 -87.4025 96° East 281 323 13,000  Level Chicago Center
08:55AM 41.9333 -87.1190 90° East  Level FlightAware Approximate
08:55AM 41.9578 -87.2917 95° East 297 342 14,200  Level Chicago Center
08:56AM 41.9511 -87.1703 94° East 321 369 15,500 1,140 Climbing Chicago Center
08:57AM 41.9436 -87.0461 95° East 333 383 16,600 1,080 Climbing Chicago Center
08:58AM 41.9475 -86.9172 88° East 343 395 17,800 1,140 Climbing Chicago Center
08:59AM 41.9494 -86.7858 89° East 352 405 19,000 1,140 Climbing Chicago Center
09:00AM 41.9508 -86.6361 89° East 361 415 20,200 1,080 Climbing Chicago Center
09:01AM 41.9525 -86.4981 89° East 369 425 21,300 1,080 Climbing Chicago Center
09:03AM 41.9539 -86.3572 89° East 377 434 22,400 1,260 Climbing Chicago Center
09:04AM 41.9553 -86.2172 89° East 375 432 23,900 1,380 Climbing Chicago Center
09:05AM 41.9297 -86.0847 104° East 369 425 25,300 1,260 Climbing Chicago Center
09:06AM 41.9031 -85.9508 105° East 369 425 26,500 780 Climbing Chicago Center
09:07AM 41.8772 -85.8164 104° East 373 429 27,000 240 Climbing Chicago Center
09:08AM 41.8489 -85.6739 105° East 391 450 27,000  Level Chicago Center
09:09AM 41.8128 -85.4922 105° East 415 478 27,000  Level Chicago Center
09:10AM 41.7811 -85.3356 105° East 426 490 27,000  Level Chicago Center
09:11AM 41.7489 -85.1775 105° East 432 497 27,000  Level Chicago Center
09:11AM 41.7369 -85.1139 104° East 431 496 27,000  Level Cleveland Center
09:12AM 41.7033 -84.9558 106° East 424 488 27,000  Level Cleveland Center
09:13AM 41.6717 -84.8033 105° East 429 494 27,000  Level Cleveland Center
09:14AM 41.6397 -84.6483 105° East 429 494 27,000  Level Cleveland Center
09:15AM 41.5864 -84.5036 116° Southeast 429 494 27,000  Level Cleveland Center
09:16AM 41.5350 -84.3589 115° Southeast 429 494 27,000  Level Cleveland Center
09:17AM 41.4850 -84.2283 117° Southeast 429 494 27,000  Level Cleveland Center
09:18AM 41.4331 -84.0842 116° Southeast 434 499 27,000  Level Cleveland Center
09:19AM 41.3769 -83.9400 117° Southeast 439 505 27,000  Level Cleveland Center
09:20AM 41.3247 -83.7961 116° Southeast 439 505 27,000  Level Cleveland Center
09:21AM 41.2725 -83.6528 116° Southeast 439 505 27,000 -420 Level Cleveland Center
09:22AM 41.2200 -83.5122 116° Southeast 433 498 26,200 -840 Descending Cleveland Center
09:23AM 41.1689 -83.3831 118° Southeast 421 484 25,400 -1,380 Descending Cleveland Center
09:24AM 41.1200 -83.2542 117° Southeast 400 460 23,500 -2,340 Descending Cleveland Center
09:25AM 41.0669 -83.1058 115° Southeast 393 452 20,800 -2,640 Descending Cleveland Center
09:26AM 41.0175 -82.9831 118° Southeast 393 452 18,300 -2,400 Descending Cleveland Center
09:27AM 40.9700 -82.8575 117° Southeast 383 441 16,000 -2,400 Descending Cleveland Center
09:28AM 40.9264 -82.7458 117° Southeast 357 411 13,600 -2,160 Descending Cleveland Center
09:29AM 40.8847 -82.6319 116° Southeast 347 399 11,700 -1,260 Descending Cleveland Center
09:30AM 40.8575 -82.5103 106° East 347 399 11,100 -480 Descending Cleveland Center
09:31AM 40.8450 -82.3836 97° East 341 392 10,800 -1,080 Descending Cleveland Center
09:32AM 40.8322 -82.2625 98° East 336 387 9,000 -240 Descending Cleveland Center
09:33AM 40.8175 -82.1386 99° East 336 387 10,400 540 Climbing Cleveland Center
09:34AM 40.8231 -82.0236 86° East 323 372 10,100 -600 Descending Cleveland Center
09:35AM 40.8367 -81.9306 79° East 284 327 9,200 -1,380 Descending Cleveland Center
09:36AM 40.8458 -81.8539 81° East 255 293 7,400 -1,860 Descending Cleveland Center
09:37AM 40.8594 -81.7719 78° East 235 270 5,500 -1,920 Descending Cleveland Center
09:38AM 40.8872 -81.6928 65° Northeast 229 264 3,600 -1,260 Descending Cleveland Center
09:39AM 40.9275 -81.6356 47° Northeast 217 250 3,000 -600 Descending Cleveland Center